Time;durP1;ratioP1;P1;durP2;ratioP2;P2;SDS_P1;SDS_P2;PMS_P1;PMS_P2;Temp;Humidity;BMP_temperature;BMP_pressure;BME280_temperature;BME280_humidity;BME280_pressure;Samples;Min_cycle;Max_cycle;Signal;HPM_P1;HPM_P2
2021/12/15 00:00:00;;;;;;;55.92;25.72;;;;;;;5.06;91.28;101717.17;1681128;84;20884;-70
2021/12/15 00:02:28;;;;;;;63.30;24.65;;;;;;;5.08;91.28;101718.37;1681016;84;21058;-71
2021/12/15 00:04:55;;;;;;;59.27;23.47;;;;;;;5.07;91.29;101708.27;1682329;84;21062;-70
2021/12/15 00:07:24;;;;;;;59.05;26.77;;;;;;;5.07;91.31;101710.91;1656796;84;21093;-70
2021/12/15 00:09:50;;;;;;;59.73;27.20;;;;;;;5.07;91.30;101705.62;1675922;84;21285;-70
2021/12/15 00:12:16;;;;;;;62.45;27.15;;;;;;;5.06;91.32;101705.27;1692037;84;20916;-70
2021/12/15 00:14:42;;;;;;;68.67;31.70;;;;;;;5.07;91.34;101700.33;1691793;84;21066;-70
2021/12/15 00:17:09;;;;;;;63.40;26.95;;;;;;;5.07;91.34;101706.94;1692253;84;21496;-70
2021/12/15 00:19:35;;;;;;;56.20;25.95;;;;;;;5.08;91.35;101708.64;1692111;84;21015;-70
2021/12/15 00:22:01;;;;;;;67.42;27.77;;;;;;;5.09;91.37;101714.31;1692281;83;21141;-70
2021/12/15 00:24:27;;;;;;;57.27;24.20;;;;;;;5.09;91.37;101719.60;1691802;84;21031;-70
2021/12/15 00:26:54;;;;;;;62.48;25.70;;;;;;;5.08;91.37;101717.05;1692794;83;21655;-70
2021/12/15 00:29:20;;;;;;;58.35;25.00;;;;;;;5.09;91.39;101722.24;1693595;84;21539;-71
2021/12/15 00:31:46;;;;;;;70.25;25.75;;;;;;;5.10;91.39;101716.02;1690914;84;20929;-70
2021/12/15 00:34:13;;;;;;;64.70;28.52;;;;;;;5.10;91.40;101719.13;1691002;84;21105;-71
2021/12/15 00:36:43;;;;;;;56.83;26.23;;;;;;;5.12;91.41;101712.78;1691005;84;21111;-70
2021/12/15 00:39:06;;;;;;;64.72;25.20;;;;;;;5.13;91.43;101713.63;1690506;84;20984;-70
2021/12/15 00:41:32;;;;;;;63.78;25.10;;;;;;;5.11;91.44;101713.72;1690892;84;20915;-70
2021/12/15 00:43:58;;;;;;;62.48;27.85;;;;;;;5.11;91.44;101712.40;1690852;84;21722;-72
2021/12/15 00:46:24;;;;;;;66.40;28.42;;;;;;;5.10;91.46;101714.70;1683438;84;21088;-71
2021/12/15 00:48:50;;;;;;;74.22;31.65;;;;;;;5.11;91.45;101715.05;1678256;85;21019;-70
2021/12/15 00:51:16;;;;;;;61.05;27.02;;;;;;;5.12;91.47;101714.10;1678178;85;21003;-70
2021/12/15 00:53:42;;;;;;;54.93;24.43;;;;;;;5.12;91.48;101714.58;1678115;85;20974;-70
2021/12/15 00:56:08;;;;;;;67.22;26.10;;;;;;;5.13;91.50;101721.09;1678281;85;20899;-71
2021/12/15 00:58:34;;;;;;;60.05;25.60;;;;;;;5.13;91.52;101721.09;1678216;85;21165;-70
2021/12/15 01:01:01;;;;;;;62.43;26.23;;;;;;;5.14;91.54;101714.83;1678299;85;20876;-70
2021/12/15 01:03:29;;;;;;;67.72;26.70;;;;;;;5.14;91.54;101712.69;1678365;85;21019;-70
2021/12/15 01:06:04;;;;;;;63.63;26.35;;;;;;;5.15;91.55;101715.22;1678482;85;21097;-70
2021/12/15 01:08:29;;;;;;;52.20;24.20;;;;;;;5.16;91.56;101714.27;1678150;85;21094;-70
2021/12/15 01:12:06;;;;;;;62.17;24.50;;;;;;;5.16;91.56;101718.23;1670757;84;21109;-70
2021/12/15 01:21:45;;;;;;;65.03;25.35;;;;;;;5.18;91.61;101728.23;1718463;82;21059;-71
2021/12/15 01:24:11;;;;;;;58.33;23.92;;;;;;;5.19;91.61;101732.58;1692959;82;21166;-70
2021/12/15 01:26:37;;;;;;;61.13;26.62;;;;;;;5.19;91.62;101732.58;1678276;85;21019;-70
2021/12/15 01:29:03;;;;;;;62.58;25.25;;;;;;;5.20;91.63;101734.28;1685766;84;21012;-70
2021/12/15 01:31:29;;;;;;;63.48;27.32;;;;;;;5.20;91.65;101740.89;1690800;84;21045;-70
2021/12/15 01:33:55;;;;;;;57.62;24.32;;;;;;;5.22;91.65;101738.13;1690855;84;21498;-71
2021/12/15 01:36:21;;;;;;;54.35;24.50;;;;;;;5.22;91.64;101736.33;1690977;84;21164;-70
2021/12/15 01:38:47;;;;;;;51.45;24.02;;;;;;;5.21;91.65;101735.95;1690570;84;20913;-70
2021/12/15 01:41:20;;;;;;;55.58;24.75;;;;;;;5.21;91.65;101737.27;1682967;84;21633;-70
2021/12/15 01:49:03;;;;;;;51.00;23.18;;;;;;;5.25;91.69;101741.41;1678264;84;21071;-70
2021/12/15 01:51:29;;;;;;;49.25;22.05;;;;;;;5.25;91.71;101733.48;1677917;84;21083;-70
2021/12/15 01:53:55;;;;;;;55.65;23.20;;;;;;;5.24;91.71;101729.13;1702138;83;20935;-71
2021/12/15 01:56:21;;;;;;;63.33;24.32;;;;;;;5.25;91.72;101730.83;1678196;85;21540;-71
2021/12/15 01:58:47;;;;;;;58.68;23.50;;;;;;;5.24;91.72;101727.80;1684359;84;20992;-71
2021/12/15 02:01:13;;;;;;;55.60;22.85;;;;;;;5.24;91.75;101726.48;1691084;84;21144;-70
2021/12/15 02:03:39;;;;;;;51.05;21.97;;;;;;;5.25;91.74;101728.66;1691170;84;21738;-70
2021/12/15 02:06:07;;;;;;;51.77;22.00;;;;;;;5.24;91.75;101730.45;1677759;83;21690;-71
2021/12/15 02:08:33;;;;;;;56.48;21.12;;;;;;;5.24;91.77;101737.06;1686006;83;21405;-71
2021/12/15 02:11:00;;;;;;;53.13;22.00;;;;;;;5.25;91.79;101744.05;1698362;83;21116;-71
2021/12/15 02:13:26;;;;;;;55.95;22.48;;;;;;;5.27;91.80;101741.32;1689827;84;21532;-70
2021/12/15 02:15:57;;;;;;;61.08;22.87;;;;;;;5.27;91.79;101744.82;1678459;85;20999;-71
2021/12/15 02:18:30;;;;;;;62.08;22.82;;;;;;;5.27;91.80;101739.53;1678076;85;21038;-71
2021/12/15 02:21:03;;;;;;;53.68;22.58;;;;;;;5.27;91.80;101736.89;1678333;85;21067;-71
2021/12/15 02:23:36;;;;;;;69.50;25.05;;;;;;;5.28;91.82;101745.16;1678213;84;21028;-70
2021/12/15 02:26:02;;;;;;;52.53;22.10;;;;;;;5.28;91.82;101741.20;1680524;84;21105;-70
2021/12/15 02:28:28;;;;;;;54.15;21.27;;;;;;;5.30;91.83;101743.75;1690671;84;21075;-71
2021/12/15 02:38:40;;;;;;;56.83;22.67;;;;;;;5.29;91.87;101745.55;1701485;84;21203;-70
2021/12/15 02:41:12;;;;;;;60.30;22.52;;;;;;;5.29;91.88;101749.52;1703940;84;21066;-72
2021/12/15 02:43:38;;;;;;;58.40;23.25;;;;;;;5.30;91.88;101752.55;1703883;84;21640;-71
2021/12/15 02:46:04;;;;;;;59.73;24.92;;;;;;;5.30;91.89;101750.37;1703747;84;21061;-71
2021/12/15 02:48:30;;;;;;;70.17;25.15;;;;;;;5.31;91.88;101752.89;1704009;84;21033;-71
2021/12/15 02:50:56;;;;;;;54.70;23.05;;;;;;;5.31;91.91;101740.17;1703449;83;21667;-70
2021/12/15 02:53:23;;;;;;;86.40;36.77;;;;;;;5.32;91.92;101742.69;1703790;84;21014;-71
2021/12/15 02:55:49;;;;;;;74.07;35.13;;;;;;;5.34;91.92;101746.10;1703800;84;21018;-71
2021/12/15 02:58:18;;;;;;;67.32;27.27;;;;;;;5.34;91.92;101751.39;1703945;84;21568;-71
2021/12/15 03:00:56;;;;;;;58.80;22.93;;;;;;;5.33;91.93;101752.33;1704090;84;21150;-70
2021/12/15 03:06:10;;;;;;;52.78;21.42;;;;;;;5.33;91.94;101752.33;1701788;84;21021;-71
2021/12/15 03:16:44;;;;;;;76.40;26.15;;;;;;;5.37;91.99;101765.73;1708335;82;21698;-71
2021/12/15 03:19:10;;;;;;;57.10;23.35;;;;;;;5.37;91.97;101767.05;1716113;83;20921;-70
2021/12/15 03:21:37;;;;;;;58.55;24.45;;;;;;;5.38;91.99;101772.69;1730162;82;20990;-71
2021/12/15 03:24:17;;;;;;;59.48;21.55;;;;;;;5.39;92.01;101762.96;1708520;81;21610;-71
2021/12/15 03:26:52;;;;;;;45.90;17.67;;;;;;;5.39;92.01;101764.28;1692185;82;21021;-71
2021/12/15 03:35:18;;;;;;;86.97;40.60;;;;;;;5.40;92.03;101777.42;1710834;82;21523;-71
2021/12/15 03:37:23;;;;;;;83.07;34.05;;;;;;;5.40;92.05;101781.86;1689773;84;21063;-71
2021/12/15 03:39:49;;;;;;;80.70;27.15;;;;;;;5.41;92.04;101780.92;1700032;84;21078;-71
2021/12/15 03:42:18;;;;;;;60.52;24.67;;;;;;;5.40;92.06;101776.09;1669217;86;21143;-71
2021/12/15 03:44:44;;;;;;;60.95;22.30;;;;;;;5.41;92.06;101772.52;1669540;85;21296;-71
2021/12/15 03:47:15;;;;;;;60.73;25.23;;;;;;;5.42;92.07;101782.12;1669483;86;21031;-71
2021/12/15 03:49:41;;;;;;;74.90;23.83;;;;;;;5.41;92.06;101781.77;1672736;85;21049;-71
2021/12/15 03:52:07;;;;;;;64.92;25.17;;;;;;;5.42;92.07;101778.63;1684302;85;21088;-71
2021/12/15 03:54:33;;;;;;;74.30;24.60;;;;;;;5.42;92.11;101784.77;1684094;85;21959;-71
2021/12/15 03:57:00;;;;;;;71.25;23.60;;;;;;;5.42;92.08;101784.77;1682755;85;21065;-71
2021/12/15 03:59:28;;;;;;;68.25;22.27;;;;;;;5.42;92.10;101774.66;1669035;84;21058;-71
2021/12/15 04:01:54;;;;;;;75.22;24.90;;;;;;;5.42;92.10;101779.95;1693463;84;21075;-71
2021/12/15 04:04:20;;;;;;;85.10;25.85;;;;;;;5.42;92.12;101783.44;1693480;84;21023;-71
2021/12/15 04:06:46;;;;;;;67.45;26.62;;;;;;;5.42;92.13;101778.16;1693712;84;21169;-71
2021/12/15 04:09:12;;;;;;;93.95;39.25;;;;;;;5.42;92.16;101788.73;1692901;84;21011;-71
2021/12/15 04:11:38;;;;;;;92.82;46.50;;;;;;;5.42;92.15;101791.38;1693601;84;21086;-70
2021/12/15 04:14:10;;;;;;;91.15;38.42;;;;;;;5.42;92.16;101786.09;1693536;84;20963;-71
2021/12/15 04:19:16;;;;;;;100.47;37.95;;;;;;;5.44;92.17;101796.58;1693460;84;21530;-71
2021/12/15 04:21:42;;;;;;;;;;;;;;;5.44;92.19;101792.14;1695807;84;21050;-70
2021/12/15 04:24:12;;;;;;;58.65;24.10;;;;;;;5.44;92.19;101793.47;1693460;84;20605;-71
2021/12/15 04:26:37;;;;;;;67.60;27.77;;;;;;;5.45;92.20;101785.87;1691638;84;21041;-71
2021/12/15 04:29:04;;;;;;;64.82;26.10;;;;;;;5.45;92.22;101785.87;1692134;84;20936;-71
2021/12/15 04:31:32;;;;;;;66.95;25.70;;;;;;;5.46;92.23;101787.58;1690955;84;21958;-71
2021/12/15 04:34:05;;;;;;;71.00;28.12;;;;;;;5.45;92.23;101785.87;1689225;85;21031;-71
2021/12/15 04:36:38;;;;;;;67.78;27.37;;;;;;;5.46;92.24;101786.73;1683711;84;21054;-71
2021/12/15 04:39:06;;;;;;;65.85;25.00;;;;;;;5.47;92.28;101783.99;1678616;85;21098;-71
2021/12/15 04:41:32;;;;;;;61.83;24.35;;;;;;;5.49;92.29;101779.44;1678963;85;21054;-71
2021/12/15 04:44:03;;;;;;;58.17;21.55;;;;;;;5.49;92.30;101784.72;1678584;85;21156;-71
2021/12/15 04:46:32;;;;;;;56.60;23.07;;;;;;;5.49;92.31;101786.52;1678472;85;21593;-71
2021/12/15 04:48:59;;;;;;;58.30;23.27;;;;;;;5.49;92.32;101791.34;1678766;85;21007;-71
2021/12/15 04:51:25;;;;;;;58.23;24.57;;;;;;;5.51;92.33;101779.34;1678751;85;21543;-71
2021/12/15 04:53:52;;;;;;;64.90;25.82;;;;;;;5.51;92.34;101784.16;1678785;85;20934;-71
2021/12/15 04:56:19;;;;;;;68.33;27.32;;;;;;;5.52;92.33;101783.70;1678490;85;21093;-71
2021/12/15 04:58:47;;;;;;;61.63;24.55;;;;;;;5.53;92.34;101786.22;1678812;85;21030;-71
2021/12/15 05:01:13;;;;;;;62.65;24.35;;;;;;;5.53;92.36;101794.16;1678716;85;21050;-71
2021/12/15 05:03:39;;;;;;;57.10;22.25;;;;;;;5.54;92.36;101799.83;1678656;85;20930;-71
2021/12/15 05:06:06;;;;;;;60.00;23.32;;;;;;;5.54;92.35;101801.16;1673162;84;20879;-71
2021/12/15 05:08:32;;;;;;;56.70;23.25;;;;;;;5.56;92.37;101794.41;1681270;84;21849;-71
2021/12/15 05:10:59;;;;;;;58.23;23.05;;;;;;;5.57;92.39;101801.88;1689380;84;21450;-71
2021/12/15 05:13:27;;;;;;;57.88;24.32;;;;;;;5.59;92.39;101805.30;1677743;84;21015;-71
2021/12/15 05:15:54;;;;;;;58.08;24.12;;;;;;;5.59;92.39;101800.00;1681464;84;21051;-71
2021/12/15 05:18:20;;;;;;;53.70;22.67;;;;;;;5.62;92.41;101812.55;1666040;84;21033;-71
2021/12/15 05:20:49;;;;;;;55.83;24.02;;;;;;;5.62;92.43;101813.02;1661252;86;21186;-71
2021/12/15 05:23:15;;;;;;;58.13;25.40;;;;;;;5.61;92.45;101808.66;1660963;85;21009;-71
2021/12/15 05:25:41;;;;;;;51.65;23.12;;;;;;;5.60;92.44;101806.49;1661479;86;21112;-70
2021/12/15 05:28:08;;;;;;;55.90;24.27;;;;;;;5.62;92.44;101811.22;1668489;85;21010;-71
2021/12/15 05:30:34;;;;;;;56.08;23.47;;;;;;;5.66;92.46;101806.58;1689171;84;21028;-71
2021/12/15 05:33:00;;;;;;;58.52;23.70;;;;;;;5.68;92.47;101811.27;1692644;84;21521;-70
2021/12/15 05:35:25;;;;;;;62.53;24.98;;;;;;;5.69;92.48;101814.30;1693762;84;20901;-71
2021/12/15 05:37:57;;;;;;;59.98;25.60;;;;;;;5.69;92.48;101818.27;1693793;84;20913;-71
2021/12/15 05:40:23;;;;;;;67.37;30.05;;;;;;;5.70;92.50;101816.00;1693888;84;21092;-71
2021/12/15 05:42:49;;;;;;;61.23;25.00;;;;;;;5.72;92.50;101824.20;1694059;84;21059;-71
2021/12/15 05:45:15;;;;;;;57.35;24.18;;;;;;;5.72;92.51;101828.64;1693909;84;22047;-71
2021/12/15 05:47:41;;;;;;;121.20;49.30;;;;;;;5.71;92.53;101828.27;1693769;84;20925;-71
2021/12/15 05:50:11;;;;;;;134.90;54.45;;;;;;;5.70;92.51;101827.91;1693889;84;20996;-71
2021/12/15 05:52:37;;;;;;;143.02;61.25;;;;;;;5.69;92.53;101831.03;1693817;84;21055;-70
2021/12/15 05:55:08;;;;;;;66.57;27.65;;;;;;;5.71;92.54;101820.32;1694001;84;21112;-71
2021/12/15 05:57:34;;;;;;;76.28;28.07;;;;;;;5.71;92.54;101819.00;1693833;84;21186;-71
2021/12/15 06:00:00;;;;;;;72.10;26.97;;;;;;;5.73;92.53;101819.29;1693778;84;21020;-70
2021/12/15 06:02:26;;;;;;;64.75;27.45;;;;;;;5.75;92.54;101819.17;1693866;84;21017;-71
2021/12/15 06:04:52;;;;;;;66.75;31.20;;;;;;;5.72;92.55;101825.53;1693708;84;21630;-71
2021/12/15 06:07:18;;;;;;;68.10;32.00;;;;;;;5.72;92.54;101828.64;1699132;83;21102;-71
2021/12/15 06:09:44;;;;;;;64.92;30.57;;;;;;;5.73;92.54;101836.97;1722968;83;21048;-70
2021/12/15 06:12:10;;;;;;;93.82;48.92;;;;;;;5.73;92.54;101831.67;1701447;83;20982;-71
2021/12/15 06:14:37;;;;;;;88.95;49.73;;;;;;;5.75;92.54;101841.66;1715195;83;21063;-71
2021/12/15 06:17:09;;;;;;;69.07;33.73;;;;;;;5.74;92.54;101839.96;1722741;83;21110;-71
2021/12/15 06:19:35;;;;;;;56.83;25.05;;;;;;;5.75;92.54;101852.25;1722082;83;21019;-71
2021/12/15 06:22:01;;;;;;;58.85;25.45;;;;;;;5.74;92.54;101846.11;1720770;82;21175;-70
2021/12/15 06:24:28;;;;;;;61.25;25.37;;;;;;;5.76;92.54;101852.63;1722791;83;21483;-71
2021/12/15 06:26:57;;;;;;;56.05;23.85;;;;;;;5.75;92.53;101845.63;1722566;83;21070;-70
2021/12/15 06:29:22;;;;;;;54.18;23.62;;;;;;;5.77;92.54;101847.72;1722614;82;21054;-71
2021/12/15 06:31:48;;;;;;;55.50;24.65;;;;;;;5.76;92.54;101851.31;1720723;83;20998;-71
2021/12/15 06:34:15;;;;;;;62.62;24.52;;;;;;;5.76;92.53;101853.48;1714312;83;21146;-71
2021/12/15 06:36:42;;;;;;;73.87;34.58;;;;;;;5.78;92.53;101865.28;1714156;83;21087;-71
2021/12/15 06:39:09;;;;;;;60.85;29.40;;;;;;;5.77;92.54;101864.92;1714202;83;21011;-70
2021/12/15 06:41:35;;;;;;;56.35;23.20;;;;;;;5.78;92.55;101866.59;1708755;83;21059;-71
2021/12/15 06:44:01;;;;;;;51.00;22.80;;;;;;;5.78;92.54;101864.80;1702944;84;21479;-71
2021/12/15 06:46:52;;;;;;;52.27;22.10;;;;;;;5.78;92.54;101862.16;1703345;84;21141;-71
2021/12/15 06:59:42;;;;;;;45.00;20.43;;;;;;;5.83;92.53;101855.23;1703113;83;21126;-71
2021/12/15 07:02:08;;;;;;;46.37;18.52;;;;;;;5.84;92.53;101850.33;1699374;83;21019;-71
2021/12/15 07:04:34;;;;;;;45.40;19.20;;;;;;;5.84;92.53;101849.00;1703523;84;21650;-71
2021/12/15 07:07:00;;;;;;;43.45;19.05;;;;;;;5.86;92.53;101857.70;1715676;83;21500;-71
2021/12/15 07:09:26;;;;;;;44.27;19.95;;;;;;;5.84;92.54;101853.80;1706583;83;20883;-71
2021/12/15 07:11:52;;;;;;;41.73;19.50;;;;;;;5.86;92.56;101849.77;1697157;83;21192;-71
2021/12/15 07:14:21;;;;;;;41.63;19.62;;;;;;;5.85;92.54;101848.03;1703617;83;21075;-71
2021/12/15 07:16:49;;;;;;;47.15;19.37;;;;;;;5.86;92.55;101856.38;1705430;83;20992;-71
2021/12/15 07:19:33;;;;;;;40.55;18.35;;;;;;;5.86;92.53;101845.80;1694138;83;21063;-70
2021/12/15 07:22:05;;;;;;;37.42;17.73;;;;;;;5.88;92.53;101854.47;1675268;83;21055;-71
2021/12/15 07:24:20;;;;;;;42.45;17.98;;;;;;;5.87;92.52;101855.44;1712020;83;21261;-70
2021/12/15 07:26:46;;;;;;;40.85;18.92;;;;;;;5.87;92.52;101850.14;1714498;83;21043;-71
2021/12/15 07:29:12;;;;;;;38.30;17.40;;;;;;;5.87;92.52;101859.41;1714523;83;20916;-71
2021/12/15 07:31:38;;;;;;;39.78;17.82;;;;;;;5.88;92.53;101857.97;1709879;83;21018;-70
2021/12/15 07:34:04;;;;;;;38.13;17.02;;;;;;;5.89;92.53;101872.06;1681011;84;21041;-71
2021/12/15 07:36:30;;;;;;;41.98;19.02;;;;;;;5.90;92.52;101868.47;1697707;84;21183;-71
2021/12/15 07:38:58;;;;;;;37.83;17.62;;;;;;;5.89;92.51;101875.55;1688637;84;21062;-70
2021/12/15 07:41:40;;;;;;;39.58;19.30;;;;;;;5.90;92.52;101876.41;1685851;85;21069;-71
2021/12/15 07:43:58;;;;;;;42.98;18.75;;;;;;;5.91;92.50;101880.77;1696233;83;21045;-70
2021/12/15 07:46:24;;;;;;;43.60;20.88;;;;;;;5.91;92.53;101872.82;1701248;83;21063;-70
2021/12/15 07:48:50;;;;;;;43.83;21.20;;;;;;;5.92;92.52;101879.31;1690147;83;21139;-70
2021/12/15 07:51:16;;;;;;;47.08;20.60;;;;;;;5.94;92.52;101875.25;1704399;83;20988;-71
2021/12/15 07:53:42;;;;;;;43.60;19.45;;;;;;;5.95;92.51;101872.48;1705109;83;21045;-70
2021/12/15 07:56:08;;;;;;;47.10;19.57;;;;;;;5.99;92.53;101875.77;1703547;84;20907;-70
2021/12/15 07:58:34;;;;;;;42.38;20.25;;;;;;;6.02;92.54;101880.86;1704186;83;20907;-71
2021/12/15 08:01:02;;;;;;;42.98;20.88;;;;;;;6.02;92.53;101878.20;1683341;83;21128;-71
2021/12/15 08:03:28;;;;;;;43.60;19.90;;;;;;;6.04;92.55;101872.34;1713591;83;21059;-70
2021/12/15 08:05:54;;;;;;;41.83;19.10;;;;;;;6.06;92.54;101881.02;1714475;83;21098;-70
2021/12/15 08:08:21;;;;;;;48.52;22.80;;;;;;;6.09;92.53;101878.16;1714718;83;21160;-70
2021/12/15 08:10:47;;;;;;;54.85;25.05;;;;;;;6.09;92.54;101884.78;1714144;83;21070;-70
2021/12/15 08:13:15;;;;;;;53.78;26.82;;;;;;;6.10;92.55;101887.81;1714804;83;21114;-71
2021/12/15 08:15:42;;;;;;;49.45;26.55;;;;;;;6.13;92.56;101891.57;1702508;83;21022;-70
2021/12/15 08:18:08;;;;;;;45.78;25.05;;;;;;;6.13;92.54;101889.39;1703471;83;21062;-70
2021/12/15 08:20:34;;;;;;;47.35;24.63;;;;;;;6.14;92.55;101895.92;1703101;83;20946;-71
2021/12/15 08:23:01;;;;;;;53.83;26.15;;;;;;;6.14;92.54;101893.75;1696355;83;21015;-70
2021/12/15 08:25:29;;;;;;;52.65;29.65;;;;;;;6.14;92.53;101887.13;1707184;83;21821;-70
2021/12/15 08:27:55;;;;;;;56.98;28.90;;;;;;;6.13;92.54;101894.22;1682350;84;21151;-71
2021/12/15 08:30:25;;;;;;;49.00;27.07;;;;;;;6.13;92.54;101893.36;1702521;84;21060;-71
2021/12/15 08:32:54;;;;;;;50.70;27.58;;;;;;;6.13;92.54;101895.54;1690338;83;21556;-71
2021/12/15 08:35:24;;;;;;;50.70;26.65;;;;;;;6.14;92.55;101895.07;1706474;83;21030;-71
2021/12/15 08:37:50;;;;;;;57.00;26.97;;;;;;;6.13;92.53;101894.22;1707753;83;21490;-71
2021/12/15 08:40:17;;;;;;;48.87;24.32;;;;;;;6.16;92.57;101898.48;1711374;83;20919;-71
2021/12/15 08:42:43;;;;;;;50.95;25.50;;;;;;;6.17;92.56;101886.91;1680131;83;21034;-71
2021/12/15 08:45:09;;;;;;;51.05;24.87;;;;;;;6.19;92.53;101893.83;1699846;83;20884;-71
2021/12/15 08:47:35;;;;;;;47.70;22.93;;;;;;;6.19;92.54;101897.80;1692745;83;21075;-71
2021/12/15 08:50:02;;;;;;;49.48;23.57;;;;;;;6.20;92.55;101892.84;1683719;84;21082;-71
2021/12/15 08:52:28;;;;;;;47.88;22.85;;;;;;;6.20;92.56;101887.55;1689634;83;21563;-71
2021/12/15 08:54:54;;;;;;;43.28;22.70;;;;;;;6.22;92.56;101886.98;1646048;87;20924;-71
2021/12/15 08:57:20;;;;;;;38.50;21.45;;;;;;;6.23;92.56;101886.01;1650391;84;20892;-71
2021/12/15 08:59:46;;;;;;;65.08;40.08;;;;;;;6.23;92.55;101889.98;1705299;83;21673;-71
2021/12/15 09:02:12;;;;;;;60.20;35.60;;;;;;;6.24;92.54;101889.51;1694026;83;21064;-71
2021/12/15 09:04:38;;;;;;;88.35;58.48;;;;;;;6.25;92.54;101891.22;1688749;84;21023;-71
2021/12/15 09:07:04;;;;;;;57.03;35.13;;;;;;;6.25;92.57;101888.09;1693002;84;20982;-71
2021/12/15 09:09:30;;;;;;;53.28;35.10;;;;;;;6.26;92.55;101895.06;1700802;83;20911;-71
2021/12/15 09:11:56;;;;;;;40.12;24.40;;;;;;;6.28;92.57;101894.97;1698250;84;20920;-71
2021/12/15 09:14:22;;;;;;;31.85;18.10;;;;;;;6.30;92.54;101895.70;1689627;83;21074;-72
2021/12/15 09:16:51;;;;;;;31.50;18.20;;;;;;;6.30;92.55;101893.91;1693387;83;20907;-71
2021/12/15 09:19:17;;;;;;;35.23;18.73;;;;;;;6.31;92.55;101887.66;1681415;83;21608;-71
2021/12/15 09:21:43;;;;;;;27.75;16.12;;;;;;;6.32;92.58;101886.72;1685648;83;21375;-71
2021/12/15 09:24:10;;;;;;;33.63;18.20;;;;;;;6.35;92.55;101889.16;1707819;83;21110;-71
2021/12/15 09:26:36;;;;;;;33.45;19.05;;;;;;;6.39;92.57;101888.46;1693196;83;21134;-71
2021/12/15 09:29:04;;;;;;;29.25;17.70;;;;;;;6.40;92.58;101881.71;1678836;85;21721;-71
2021/12/15 09:31:30;;;;;;;27.87;16.57;;;;;;;6.42;92.55;101882.47;1694914;83;21006;-71
2021/12/15 09:33:57;;;;;;;29.30;17.15;;;;;;;6.41;92.56;101878.12;1662109;84;21088;-71
2021/12/15 09:36:23;;;;;;;33.80;18.55;;;;;;;6.44;92.54;101873.92;1677445;85;21043;-71
2021/12/15 09:38:53;;;;;;;31.20;17.25;;;;;;;6.45;92.57;101874.30;1695059;84;21189;-71
2021/12/15 09:41:19;;;;;;;29.77;16.50;;;;;;;6.48;92.55;101870.11;1707066;83;21005;-71
2021/12/15 09:43:47;;;;;;;35.05;19.77;;;;;;;6.48;92.55;101868.78;1698137;84;21547;-71
2021/12/15 09:46:28;;;;;;;31.15;17.40;;;;;;;6.51;92.56;101872.54;1694208;83;21054;-71
2021/12/15 10:02:58;;;;;;;33.55;19.50;;;;;;;6.50;92.57;101854.97;1704867;83;21488;-71
2021/12/15 10:04:57;;;;;;;32.25;18.05;;;;;;;6.53;92.55;101856.07;1684955;83;21141;-71
2021/12/15 10:17:50;;;;;;;41.05;24.52;;;;;;;6.49;92.54;101863.86;1677716;83;21935;-71
2021/12/15 10:20:23;;;;;;;35.65;21.10;;;;;;;6.48;92.53;101858.19;1676876;85;21520;-71
2021/12/15 10:22:54;;;;;;;51.33;28.85;;;;;;;6.48;92.54;101850.23;1680646;83;21071;-71
2021/12/15 10:25:37;;;;;;;38.73;21.95;;;;;;;6.50;92.53;101850.99;1678776;83;21015;-71
2021/12/15 10:28:06;;;;;;;32.13;19.45;;;;;;;6.51;92.52;101847.36;1680181;83;21065;-71
2021/12/15 10:30:43;;;;;;;36.85;19.02;;;;;;;6.52;92.52;101846.89;1677539;83;21853;-71
2021/12/15 10:33:17;;;;;;;37.03;22.02;;;;;;;6.53;92.50;101856.07;1682034;83;21596;-71
2021/12/15 10:35:50;;;;;;;41.23;22.13;;;;;;;6.56;92.51;101854.14;1698767;84;21058;-71
2021/12/15 10:38:41;;;;;;;34.63;20.23;;;;;;;6.57;92.51;101853.20;1690438;84;21078;-71
2021/12/15 10:41:34;;;;;;;33.80;20.55;;;;;;;6.58;92.50;101857.55;1691577;84;21083;-71
2021/12/15 10:44:13;;;;;;;33.35;20.65;;;;;;;6.58;92.50;101852.25;1685640;85;21098;-71
2021/12/15 10:46:48;;;;;;;37.23;21.83;;;;;;;6.60;92.49;101854.30;1684088;84;21038;-71
2021/12/15 10:49:24;;;;;;;40.40;22.45;;;;;;;6.62;92.50;101853.70;1674435;85;21097;-71
2021/12/15 10:52:06;;;;;;;42.23;24.90;;;;;;;6.64;92.49;101852.66;1677078;83;21492;-71
2021/12/15 10:54:44;;;;;;;49.53;29.10;;;;;;;6.68;92.47;101858.13;1699593;84;21053;-71
2021/12/15 10:57:17;;;;;;;46.95;28.47;;;;;;;6.70;92.47;101857.52;1700312;84;21134;-71
2021/12/15 10:59:53;;;;;;;50.95;30.15;;;;;;;6.73;92.48;101858.62;1701594;83;21089;-71
2021/12/15 11:02:24;;;;;;;52.35;29.42;;;;;;;6.74;92.46;101848.39;1700052;84;21069;-70
2021/12/15 11:04:57;;;;;;;63.75;33.18;;;;;;;6.76;92.47;101852.24;1683203;83;21019;-71
2021/12/15 11:07:48;;;;;;;62.30;35.58;;;;;;;6.76;92.48;101856.22;1667415;84;21581;-71
2021/12/15 11:10:25;;;;;;;59.40;33.50;;;;;;;6.78;92.46;101853.00;1678981;83;21101;-71
2021/12/15 11:12:57;;;;;;;54.85;29.25;;;;;;;6.80;92.46;101847.09;1675362;85;21491;-71
2021/12/15 11:15:41;;;;;;;44.20;27.55;;;;;;;6.79;92.45;101837.47;1695583;83;21044;-71
2021/12/15 11:18:17;;;;;;;69.30;34.83;;;;;;;6.78;92.43;101841.92;1699708;84;21028;-72
2021/12/15 11:20:50;;;;;;;43.68;25.68;;;;;;;6.80;92.44;101839.99;1699871;84;21072;-71
2021/12/15 11:23:19;;;;;;;36.75;23.57;;;;;;;6.83;92.42;101841.56;1698086;83;21066;-71
2021/12/15 11:25:58;;;;;;;38.73;24.57;;;;;;;6.84;92.41;101840.62;1696668;83;21019;-71
2021/12/15 11:28:42;;;;;;;37.50;23.50;;;;;;;6.86;92.41;101838.72;1696123;83;41826;-71
2021/12/15 11:31:16;;;;;;;39.40;25.23;;;;;;;6.88;92.40;101828.84;1690490;83;21041;-71
2021/12/15 11:33:51;;;;;;;37.53;24.75;;;;;;;6.90;92.40;101838.84;1704272;82;21770;-71
2021/12/15 11:36:32;;;;;;;51.13;34.30;;;;;;;6.90;92.39;101832.21;1672209;85;21538;-72
2021/12/15 11:39:16;;;;;;;40.73;26.12;;;;;;;6.92;92.37;101839.59;1700804;84;21502;-71
2021/12/15 11:41:45;;;;;;;54.93;30.52;;;;;;;6.93;92.35;101832.02;1701213;83;21067;-71
2021/12/15 11:44:14;;;;;;;50.10;29.53;;;;;;;6.96;92.33;101831.79;1701467;84;21050;-71
2021/12/15 11:46:58;;;;;;;43.87;26.48;;;;;;;6.99;92.34;101832.89;1700677;83;21039;-71
2021/12/15 11:49:29;;;;;;;43.10;27.13;;;;;;;7.01;92.35;101835.78;1704980;82;21434;-71
2021/12/15 11:52:02;;;;;;;42.75;26.42;;;;;;;7.00;92.31;101830.61;1664252;85;21003;-71
2021/12/15 11:54:37;;;;;;;44.63;28.15;;;;;;;7.00;92.32;101830.61;1672652;84;21071;-71
2021/12/15 11:57:16;;;;;;;45.70;29.57;;;;;;;7.00;92.30;101826.63;1674855;84;21170;-71
2021/12/15 11:59:49;;;;;;;58.55;31.50;;;;;;;7.00;92.29;101828.78;1678173;85;21091;-71
2021/12/15 12:02:33;;;;;;;73.37;34.92;;;;;;;7.02;92.28;101824.70;1664970;83;21087;-71
2021/12/15 12:05:25;;;;;;;105.20;47.23;;;;;;;7.02;92.25;101833.98;1672331;84;21537;-71
2021/12/15 12:07:57;;;;;;;83.37;44.60;;;;;;;7.01;92.25;101840.24;1641805;84;21540;-71
2021/12/15 12:10:46;;;;;;;91.32;53.17;;;;;;;6.98;92.22;101833.36;1655017;84;21130;-71
2021/12/15 12:13:21;;;;;;;65.87;40.48;;;;;;;6.97;92.20;101836.11;1676098;82;21031;-73
2021/12/15 12:15:45;;;;;;;59.03;35.33;;;;;;;6.99;92.20;101834.22;1695169;82;21261;-71
2021/12/15 12:18:15;;;;;;;50.52;32.90;;;;;;;7.00;92.18;101832.76;1686847;83;21038;-71
2021/12/15 12:20:43;;;;;;;;;;;;;;;7.02;92.17;101833.98;1670661;84;21007;-71
2021/12/15 12:23:13;;;;;;;54.58;28.32;;;;;;;7.02;92.16;101840.14;1685566;83;20640;-71
2021/12/15 12:25:47;;;;;;;48.10;29.72;;;;;;;7.01;92.15;101835.78;1692829;84;21019;-71
2021/12/15 12:28:18;;;;;;;51.18;29.72;;;;;;;7.02;92.14;101837.96;1689289;82;21153;-71
2021/12/15 12:30:54;;;;;;;50.33;29.40;;;;;;;7.00;92.09;101838.56;1702934;82;21056;-71
2021/12/15 12:33:22;;;;;;;43.38;27.58;;;;;;;7.01;92.10;101846.87;1700012;83;21489;-70
2021/12/15 12:35:58;;;;;;;44.35;26.50;;;;;;;7.01;92.10;101837.59;1693012;84;21013;-71
2021/12/15 12:38:27;;;;;;;48.30;28.52;;;;;;;7.00;92.09;101838.56;1671695;84;21030;-70